createdAt,value
2023-11-23T00:02:20.306Z,20.67
2023-11-23T00:06:21.977Z,19.63
2023-11-23T00:10:23.544Z,20.20
2023-11-23T00:14:26.613Z,22.08
2023-11-23T00:22:29.734Z,22.17
2023-11-23T00:26:31.377Z,22.58
2023-11-23T00:30:34.277Z,21.73
2023-11-23T00:34:35.874Z,23.75
2023-11-23T00:38:37.520Z,21.95
2023-11-23T00:42:39.146Z,21.02
2023-11-23T00:46:42.083Z,30.42
2023-11-23T00:54:45.114Z,20.80
2023-11-23T00:58:46.692Z,23.60
2023-11-23T01:02:49.805Z,9.68
2023-11-23T01:06:51.469Z,23.05
2023-11-23T01:10:53.024Z,27.17
2023-11-23T01:14:54.610Z,27.40
2023-11-23T01:18:57.559Z,25.55
2023-11-23T01:22:59.111Z,25.23
2023-11-23T01:27:00.698Z,29.80
2023-11-23T01:31:02.277Z,27.08
2023-11-23T01:35:06.449Z,30.42
2023-11-23T01:39:08.040Z,20.95
2023-11-23T01:43:09.643Z,28.42
2023-11-23T01:47:14.033Z,27.67
2023-11-23T01:51:18.287Z,28.98
2023-11-23T01:55:20.065Z,30.00
2023-11-23T01:59:21.685Z,27.98
2023-11-23T02:03:23.474Z,28.75
2023-11-23T02:07:26.469Z,29.65
2023-11-23T02:15:29.601Z,23.17
2023-11-23T02:19:31.168Z,27.23
2023-11-23T02:23:34.133Z,24.55
2023-11-23T02:31:38.730Z,24.50
2023-11-23T02:35:40.402Z,13.07
2023-11-23T02:39:42.180Z,31.13
2023-11-23T02:43:45.376Z,20.60
2023-11-23T02:47:47.039Z,22.48
2023-11-23T02:51:48.661Z,28.65
2023-11-23T02:55:50.201Z,24.90
2023-11-23T02:59:53.209Z,28.48
2023-11-23T03:03:55.574Z,11.93
2023-11-23T03:07:57.201Z,15.77
2023-11-23T03:11:59.820Z,23.73
2023-11-23T03:16:02.784Z,24.98
2023-11-23T03:24:06.693Z,31.10
2023-11-23T03:28:08.283Z,17.58
2023-11-23T03:32:11.430Z,19.10
2023-11-23T03:36:13.064Z,25.00
2023-11-23T03:40:14.752Z,13.80
2023-11-23T03:44:16.323Z,15.02
2023-11-23T03:48:19.723Z,21.20
2023-11-23T03:52:21.311Z,19.83
2023-11-23T03:56:22.880Z,20.80
2023-11-23T04:00:24.531Z,22.35
2023-11-23T04:04:27.498Z,28.17
2023-11-23T04:12:30.489Z,31.05
2023-11-23T04:16:32.118Z,21.08
2023-11-23T04:20:35.046Z,22.95
2023-11-23T04:28:40.713Z,28.38
2023-11-23T04:36:45.192Z,20.38
2023-11-23T04:44:48.297Z,28.02
2023-11-23T04:48:50.033Z,22.25
2023-11-23T04:52:53.009Z,18.20
2023-11-23T05:00:56.280Z,30.67
2023-11-23T05:04:57.914Z,22.65
2023-11-23T05:09:00.903Z,20.23
2023-11-23T05:17:04.322Z,23.05
2023-11-23T05:21:06.106Z,24.63
2023-11-23T05:25:09.443Z,23.80
2023-11-23T05:29:10.993Z,28.08
2023-11-23T05:33:12.799Z,23.27
2023-11-23T05:37:14.380Z,27.05
2023-11-23T05:41:17.282Z,26.65
2023-11-23T05:49:20.352Z,24.50
2023-11-23T05:53:21.901Z,24.65
2023-11-23T05:57:25.212Z,27.17
2023-11-23T06:01:26.783Z,19.92
2023-11-23T06:05:28.475Z,25.88
2023-11-23T06:09:30.324Z,26.38
2023-11-23T06:13:33.239Z,26.98
2023-11-23T06:21:36.256Z,27.98
2023-11-23T06:25:37.841Z,29.23
2023-11-23T06:29:40.779Z,25.92
2023-11-23T06:37:43.835Z,28.15
2023-11-23T06:41:45.396Z,27.40
2023-11-23T06:45:48.569Z,25.85
2023-11-23T06:49:50.154Z,24.40
2023-11-23T06:53:51.736Z,27.55
2023-11-23T06:57:53.331Z,32.10
2023-11-23T07:01:56.332Z,30.88
2023-11-23T07:05:57.966Z,29.33
2023-11-23T07:09:59.569Z,30.27
2023-11-23T07:14:01.189Z,31.58
2023-11-23T07:18:04.290Z,31.52
2023-11-23T07:22:06.158Z,8.70
2023-11-23T07:26:07.778Z,27.77
2023-11-23T07:30:10.310Z,30.35
2023-11-23T07:34:13.250Z,31.95
2023-11-23T07:42:18.957Z,37.33
2023-11-23T07:46:22.984Z,25.73
2023-11-23T07:50:26.569Z,27.08
2023-11-23T07:58:29.679Z,20.98
2023-11-23T08:02:31.545Z,26.75
2023-11-23T08:06:34.503Z,25.05
2023-11-23T08:14:37.549Z,27.45
2023-11-23T08:18:43.665Z,30.20
2023-11-23T08:22:52.593Z,25.17
2023-11-23T08:30:55.744Z,25.35
2023-11-23T08:34:57.351Z,29.77
2023-11-23T08:39:00.390Z,16.38
2023-11-23T08:43:02.004Z,23.40
2023-11-23T08:47:04.384Z,28.65
2023-11-23T08:51:06.637Z,24.47
2023-11-23T08:55:10.367Z,23.75
2023-11-23T08:59:11.957Z,19.33
2023-11-23T09:03:13.736Z,13.80
2023-11-23T09:07:15.439Z,21.92
2023-11-23T09:11:18.428Z,9.65
2023-11-23T09:19:21.429Z,16.02
2023-11-23T09:23:23.018Z,18.77
2023-11-23T09:27:25.994Z,18.67
2023-11-23T09:35:28.994Z,17.05
2023-11-23T09:39:30.631Z,16.45
2023-11-23T09:43:34.730Z,7.97
2023-11-23T09:51:38.866Z,19.30
2023-11-23T09:55:40.689Z,14.85
2023-11-23T09:59:43.592Z,8.32
2023-11-23T10:03:53.688Z,12.38
2023-11-23T10:07:55.465Z,19.15
2023-11-23T10:11:57.173Z,18.50
2023-11-23T10:16:02.805Z,24.20
2023-11-23T10:20:08.853Z,19.00
2023-11-23T10:24:10.648Z,17.92
2023-11-23T10:28:12.271Z,14.85
2023-11-23T10:32:16.702Z,16.08
2023-11-23T10:36:19.076Z,14.75
2023-11-23T10:40:21.241Z,9.77
2023-11-23T10:44:22.860Z,6.60
2023-11-23T10:48:26.069Z,19.13
2023-11-23T10:52:27.781Z,13.45
2023-11-23T10:56:31.315Z,7.93
2023-11-23T11:00:33.504Z,12.15
2023-11-23T11:04:36.859Z,18.23
2023-11-23T11:08:43.954Z,25.60
2023-11-23T11:12:47.584Z,12.18
2023-11-23T11:17:01.160Z,13.20
2023-11-23T11:21:08.752Z,15.48
2023-11-23T11:25:14.916Z,11.70
2023-11-23T11:29:17.662Z,14.75
2023-11-23T11:33:24.758Z,8.48
2023-11-23T11:37:30.747Z,17.60
2023-11-23T11:41:33.734Z,15.05
2023-11-23T11:45:35.407Z,8.40
2023-11-23T11:49:37.061Z,8.05
2023-11-23T11:53:40.108Z,11.07
2023-11-23T12:01:43.438Z,13.20
2023-11-23T12:05:45.111Z,6.15
2023-11-23T12:09:55.378Z,14.52
2023-11-23T12:13:57.187Z,19.58
2023-11-23T12:17:58.872Z,11.32
2023-11-23T12:22:00.543Z,14.02
2023-11-23T12:26:03.578Z,12.90
2023-11-23T12:34:07.234Z,12.77
2023-11-23T12:38:09.253Z,9.35
2023-11-23T12:42:12.347Z,13.77
2023-11-23T12:50:15.620Z,8.38
2023-11-23T12:54:17.228Z,13.13
2023-11-23T12:58:20.193Z,10.55
2023-11-23T13:02:21.853Z,13.45
2023-11-23T13:06:23.546Z,12.85
2023-11-23T13:10:25.258Z,13.15
2023-11-23T13:14:28.186Z,12.10
2023-11-23T13:18:47.653Z,13.50
2023-11-23T13:22:52.010Z,7.47
2023-11-23T13:26:53.608Z,10.77
2023-11-23T13:30:56.552Z,8.48
2023-11-23T13:34:58.168Z,22.17
2023-11-23T13:38:59.721Z,27.05
2023-11-23T13:43:01.321Z,14.75
2023-11-23T13:47:04.776Z,31.38
2023-11-23T13:51:06.600Z,22.58
2023-11-23T13:55:08.355Z,17.83
2023-11-23T13:59:10.057Z,15.40
2023-11-23T14:03:13.109Z,11.18
2023-11-23T14:11:16.186Z,26.65
2023-11-23T14:15:18.004Z,14.07
2023-11-23T14:19:21.045Z,22.63
2023-11-23T14:23:22.668Z,24.20
2023-11-23T14:27:24.890Z,16.52
2023-11-23T14:35:30.068Z,21.63
2023-11-23T14:39:31.696Z,26.60
2023-11-23T14:43:33.339Z,28.00
2023-11-23T14:47:34.916Z,24.08
2023-11-23T14:51:37.897Z,12.52
2023-11-23T14:55:39.475Z,18.60
2023-11-23T14:59:41.310Z,18.70
2023-11-23T15:03:42.927Z,13.80
2023-11-23T15:07:46.376Z,6.43
2023-11-23T15:11:48.703Z,10.48
2023-11-23T15:15:50.390Z,5.60
2023-11-23T15:19:52.054Z,8.65
2023-11-23T15:23:54.974Z,11.63
2023-11-23T15:27:56.560Z,10.25
2023-11-23T15:31:58.137Z,14.18
2023-11-23T15:35:59.717Z,10.63
2023-11-23T15:40:02.700Z,10.55
2023-11-23T15:44:04.840Z,10.68
2023-11-23T15:48:06.799Z,4.77
2023-11-23T15:52:08.435Z,9.82
2023-11-23T15:56:15.736Z,9.55
2023-11-23T16:00:17.679Z,29.65
2023-11-23T16:04:19.458Z,14.13
2023-11-23T16:08:21.155Z,3.97
2023-11-23T16:12:24.079Z,8.98
2023-11-23T16:16:25.698Z,9.60
2023-11-23T16:20:27.249Z,8.65
2023-11-23T16:24:29.045Z,11.50
2023-11-23T16:28:31.999Z,10.93
2023-11-23T16:32:33.601Z,4.70
2023-11-23T16:36:39.635Z,7.13
2023-11-23T16:40:42.012Z,3.45
2023-11-23T16:44:44.928Z,4.40
2023-11-23T16:48:46.630Z,8.13
2023-11-23T16:52:48.245Z,8.45
2023-11-23T16:56:49.830Z,6.60
2023-11-23T17:00:53.168Z,17.42
2023-11-23T17:04:56.141Z,5.72
2023-11-23T17:08:59.043Z,7.30
2023-11-23T17:13:00.686Z,6.35
2023-11-23T17:17:03.919Z,10.43
2023-11-23T17:21:06.383Z,8.70
2023-11-23T17:25:09.377Z,6.88
2023-11-23T17:29:11.377Z,4.20
2023-11-23T17:33:14.745Z,8.40
2023-11-23T17:37:16.707Z,6.20
2023-11-23T17:41:18.614Z,3.95
2023-11-23T17:45:20.495Z,7.15
2023-11-23T17:49:23.634Z,9.10
2023-11-23T17:57:26.744Z,7.65
2023-11-23T18:01:28.535Z,7.20
2023-11-23T18:05:31.668Z,8.73
2023-11-23T18:13:35.286Z,10.70
2023-11-23T18:17:37.208Z,6.10
2023-11-23T18:21:40.203Z,7.10
2023-11-23T18:25:41.815Z,8.02
2023-11-23T18:29:43.756Z,9.90
2023-11-23T18:33:45.400Z,15.10
2023-11-23T18:37:48.393Z,12.27
2023-11-23T18:41:50.045Z,16.58
2023-11-23T18:45:51.674Z,10.43
2023-11-23T18:49:53.277Z,5.93
2023-11-23T18:53:56.174Z,5.90
2023-11-23T18:57:57.849Z,7.18
2023-11-23T19:01:59.542Z,10.23
2023-11-23T19:06:01.318Z,5.65
2023-11-23T19:10:04.866Z,7.95
2023-11-23T19:14:06.532Z,4.82
2023-11-23T19:18:09.153Z,5.68
2023-11-23T19:22:11.318Z,4.78
2023-11-23T19:26:15.385Z,6.25
2023-11-23T19:30:18.088Z,5.57
2023-11-23T19:34:20.322Z,6.30
2023-11-23T19:38:22.856Z,10.07
2023-11-23T19:42:27.724Z,6.82
2023-11-23T19:46:29.873Z,6.43
2023-11-23T19:50:31.922Z,5.95
2023-11-23T19:54:33.552Z,2.60
2023-11-23T19:58:36.500Z,7.65
2023-11-23T20:02:38.348Z,6.80
2023-11-23T20:06:40.109Z,7.25
2023-11-23T20:10:45.083Z,5.55
2023-11-23T20:14:48.842Z,5.10
2023-11-23T20:18:50.430Z,4.97
2023-11-23T20:22:52.123Z,7.10
2023-11-23T20:26:53.850Z,4.68
2023-11-23T20:30:56.806Z,5.00
2023-11-23T20:34:58.435Z,5.78
2023-11-23T20:39:00.101Z,6.15
2023-11-23T20:43:01.703Z,6.00
2023-11-23T20:47:04.879Z,3.33
2023-11-23T20:55:09.168Z,4.07
2023-11-23T20:59:11.438Z,4.78
2023-11-23T21:03:15.202Z,3.27
2023-11-23T21:07:17.566Z,3.22
2023-11-23T21:11:19.499Z,5.23
2023-11-23T21:15:21.786Z,5.22
2023-11-23T21:19:24.807Z,4.17
2023-11-23T21:23:26.475Z,2.83
2023-11-23T21:27:28.239Z,2.97
2023-11-23T21:31:29.850Z,4.82
2023-11-23T21:35:32.762Z,4.50
2023-11-23T21:39:34.353Z,2.53
2023-11-23T21:43:35.926Z,3.90
2023-11-23T21:47:39.783Z,3.70
2023-11-23T21:51:43.006Z,2.80
2023-11-23T21:55:44.566Z,3.38
2023-11-23T21:59:46.129Z,3.17
2023-11-23T22:03:51.374Z,4.50
2023-11-23T22:07:54.771Z,3.53
2023-11-23T22:11:56.343Z,1.55
2023-11-23T22:15:58.217Z,3.72
2023-11-23T22:20:00.215Z,4.35
2023-11-23T22:24:03.760Z,3.13
2023-11-23T22:28:06.566Z,2.42
2023-11-23T22:32:10.125Z,5.22
2023-11-23T22:36:12.839Z,4.32
2023-11-23T22:40:17.081Z,4.13
2023-11-23T22:44:19.261Z,2.85
2023-11-23T22:48:20.828Z,3.73
2023-11-23T22:52:22.378Z,4.47
2023-11-23T22:56:25.309Z,2.83
2023-11-23T23:00:27.186Z,4.22
2023-11-23T23:04:28.807Z,4.63
2023-11-23T23:08:30.416Z,1.92
2023-11-23T23:12:33.340Z,4.28
2023-11-23T23:16:34.938Z,7.15
2023-11-23T23:20:36.505Z,3.40
2023-11-23T23:24:38.091Z,5.60
2023-11-23T23:28:41.077Z,3.80
2023-11-23T23:32:44.080Z,5.43
2023-11-23T23:40:47.199Z,4.07
2023-11-23T23:44:50.118Z,4.10
2023-11-23T23:48:51.735Z,3.08
2023-11-23T23:52:53.415Z,2.45
2023-11-23T23:56:55.081Z,2.90
